Terminal Aerodrome Forecast
Issued by NWS Green Bay, WI

Home | Current Version | Previous Version | Text Only | Print | Product List | Glossary Off
Versions: 1 2 3 4 5 6 7 8 9 10 11 12 13 14 15 16 17 18 19 20 21 22 23 24 25 26 27 28 29 30 31 32 33 34 35 36 37

000
FTUS43 KGRB 181100
TAFGRB
TAF
KGRB 181135Z 1812/1912 34014G20KT P6SM SCT030 BKN050
      TEMPO 1812/1814 -RA BKN030
     FM181400 35013G20KT P6SM SCT035 BKN060
     FM181800 35012G19KT P6SM SCT050
     FM182200 36005KT P6SM SKC=

USA.gov is the U.S. government's official web portal to all federal, state and local government web resources and services.